GABS/BKO METAR and TAF weather

Enter ICAO airport designator
Station Type Date Time Source
GABS METAR 2021/08/01 16:00 UTC NOAA

GABS 011600Z 13006KT 100V180 9999 -RA SCT020 FEW030TCU 28/24 Q1014 NOSIG


Station Type Date Time Source
GABS Decoded METAR 2021/08/01 16:00 UTC NOAA

Bamako / Senou, Mali (GABS) 12-32N 007-57W 381M
Aug 01, 2021 - 12:00 PM EDT / 2021.08.01 1600 UTC
Wind: from the SE (130 degrees) at 7 MPH (6 KT) (direction variable):0
Visibility: greater than 7 mile(s):0
Sky conditions: partly cloudy
Weather: light rain; Towering cumulus clouds observed
Temperature: 82 F (28 C)
Dew Point: 75 F (24 C)
Relative Humidity: 78%
Pressure (altimeter): 29.94 in. Hg (1014 hPa)
ob: GABS 011600Z 13006KT 100V180 9999 -RA SCT020 FEW030TCU 28/24 Q1014 NOSIG
cycle: 16

Station Type Date Time Source
GABS TAF 2021/08/01 12:12 UTC NOAA

TAF TAF GABS 011100Z 0112/0218 20008KT 9999 BKN020
TEMPO 0112/0124 VRB16G30KT 4000 TSRA BKN020 FEW030CB PROB40
TEMPO 0200/0206 09020G35KT 4000 TSRA BKN020 FEW030CB

Example: see airport list